Time;durP1;ratioP1;P1;durP2;ratioP2;P2;SDS_P1;SDS_P2;PMS_P1;PMS_P2;Temp;Humidity;BMP_temperature;BMP_pressure;BME280_temperature;BME280_humidity;BME280_pressure;Samples;Min_cycle;Max_cycle;Signal;HPM_P1;HPM_P2
2022/07/15 00:01:30;;;;;;;3.80;2.30;;;24.80;55.80;;;;;;220255;1268;22541;-48
2022/07/15 00:06:42;;;;;;;2.60;2.10;;;24.80;55.50;;;;;;220469;1267;25460;-51
2022/07/15 00:11:46;;;;;;;3.70;2.40;;;24.80;55.50;;;;;;220512;1268;24721;-54
2022/07/15 00:16:50;;;;;;;2.90;2.40;;;24.80;55.70;;;;;;220133;1268;22528;-50
2022/07/15 00:21:54;;;;;;;2.60;2.00;;;24.80;55.50;;;;;;220295;1267;22553;-52
2022/07/15 00:26:58;;;;;;;2.70;2.10;;;24.80;55.60;;;;;;220321;1267;22533;-51
2022/07/15 00:32:02;;;;;;;2.80;2.10;;;24.80;55.50;;;;;;220597;1267;22781;-53
2022/07/15 00:37:08;;;;;;;3.20;2.20;;;24.80;55.60;;;;;;220218;1268;22592;-52
2022/07/15 00:42:43;;;;;;;3.40;2.40;;;24.80;55.60;;;;;;220335;1268;23476;-53
2022/07/15 00:47:45;;;;;;;2.70;2.20;;;24.70;55.40;;;;;;220464;1267;25440;-52
2022/07/15 00:53:19;;;;;;;3.50;2.40;;;24.70;55.40;;;;;;220165;1267;23770;-52
2022/07/15 00:58:34;;;;;;;2.90;2.40;;;24.70;55.50;;;;;;220361;1267;25441;-49
2022/07/15 01:03:41;;;;;;;2.60;1.90;;;24.70;55.90;;;;;;220298;1269;24223;-50
2022/07/15 01:08:45;;;;;;;3.10;2.00;;;24.70;55.50;;;;;;220391;1267;24278;-50
2022/07/15 01:13:49;;;;;;;2.80;2.20;;;24.70;55.50;;;;;;220472;1267;22544;-49
2022/07/15 01:18:53;;;;;;;4.20;2.10;;;24.70;55.50;;;;;;220523;1268;25232;-50
2022/07/15 01:24:00;;;;;;;2.80;2.20;;;24.70;55.40;;;;;;220266;1267;25354;-51
2022/07/15 01:29:28;;;;;;;2.80;1.90;;;24.60;55.40;;;;;;220396;1268;25302;-49
2022/07/15 01:34:32;;;;;;;3.40;2.00;;;24.60;55.40;;;;;;219997;1268;711067;-51
2022/07/15 01:39:36;;;;;;;2.40;1.60;;;24.60;55.70;;;;;;220802;1267;25424;-53
2022/07/15 01:44:42;;;;;;;2.90;2.00;;;24.60;55.70;;;;;;220111;1268;25240;-51
2022/07/15 01:49:46;;;;;;;3.80;2.10;;;24.50;55.50;;;;;;220582;1268;25576;-52
2022/07/15 01:54:53;;;;;;;2.80;2.10;;;24.50;55.60;;;;;;220645;1267;25298;-51
2022/07/15 02:00:02;;;;;;;3.70;2.20;;;24.50;55.30;;;;;;220204;1269;23950;-50
2022/07/15 02:05:30;;;;;;;2.80;2.00;;;24.50;55.60;;;;;;220450;1267;24217;-49
2022/07/15 02:10:55;;;;;;;3.10;2.10;;;24.50;55.20;;;;;;220599;1267;25230;-51
2022/07/15 02:16:09;;;;;;;3.40;1.90;;;24.50;55.20;;;;;;220367;1267;24395;-50
2022/07/15 02:21:35;;;;;;;3.00;2.00;;;24.50;55.20;;;;;;220536;1267;25658;-54
2022/07/15 02:26:49;;;;;;;2.90;2.10;;;24.50;55.20;;;;;;220300;1267;25377;-52
2022/07/15 02:32:08;;;;;;;2.60;2.00;;;24.50;55.20;;;;;;220251;1267;23652;-50
2022/07/15 02:37:20;;;;;;;2.90;1.70;;;24.40;54.90;;;;;;220180;1267;25245;-52
2022/07/15 02:42:25;;;;;;;2.90;1.80;;;24.40;55.00;;;;;;220216;1267;25238;-51
2022/07/15 02:47:31;;;;;;;3.50;2.10;;;24.40;55.00;;;;;;220297;1268;25352;-50
2022/07/15 02:52:35;;;;;;;2.70;2.00;;;24.40;55.40;;;;;;220152;1268;22597;-49
2022/07/15 02:57:43;;;;;;;2.40;1.80;;;24.40;55.00;;;;;;220459;1267;24234;-50
2022/07/15 03:02:48;;;;;;;2.80;1.80;;;24.40;54.90;;;;;;220268;1268;22525;-50
2022/07/15 03:07:53;;;;;;;4.10;1.90;;;24.30;54.80;;;;;;220748;1268;24893;-55
2022/07/15 03:12:59;;;;;;;3.00;1.80;;;24.30;54.80;;;;;;220430;1267;22709;-50
2022/07/15 03:18:03;;;;;;;3.10;2.30;;;24.30;55.00;;;;;;220389;1267;22553;-53
2022/07/15 03:23:07;;;;;;;3.30;2.00;;;24.30;54.80;;;;;;220287;1267;24788;-49
2022/07/15 03:28:11;;;;;;;2.80;1.80;;;24.30;54.80;;;;;;220358;1267;24171;-50
2022/07/15 03:33:16;;;;;;;2.90;1.70;;;24.30;54.80;;;;;;220419;1267;22475;-51
2022/07/15 03:38:21;;;;;;;2.50;1.70;;;24.30;54.80;;;;;;220289;1267;25238;-50
2022/07/15 03:43:29;;;;;;;2.90;1.90;;;24.30;55.40;;;;;;220362;1268;22476;-48
2022/07/15 03:48:34;;;;;;;2.50;1.50;;;24.30;54.80;;;;;;220537;1267;22567;-50
2022/07/15 03:53:37;;;;;;;2.50;1.40;;;24.30;54.80;;;;;;220556;1267;24222;-50
2022/07/15 03:58:44;;;;;;;3.40;2.00;;;24.20;54.70;;;;;;220312;1267;24214;-49
2022/07/15 04:03:49;;;;;;;2.50;1.70;;;24.20;54.60;;;;;;220176;1267;22532;-48
2022/07/15 04:08:53;;;;;;;2.30;1.50;;;24.20;54.50;;;;;;220073;1269;22528;-52
2022/07/15 04:13:56;;;;;;;3.00;1.70;;;24.20;55.10;;;;;;220095;1267;22526;-52
2022/07/15 04:19:00;;;;;;;3.00;1.90;;;24.20;54.50;;;;;;220017;1268;22581;-50
2022/07/15 04:24:05;;;;;;;3.60;1.90;;;24.20;54.50;;;;;;220250;1267;26020;-50
2022/07/15 04:29:08;;;;;;;2.70;1.70;;;24.20;54.80;;;;;;220357;1267;22598;-52
2022/07/15 04:34:12;;;;;;;2.40;1.50;;;24.20;54.40;;;;;;220104;1268;22576;-52
2022/07/15 04:39:18;;;;;;;2.50;1.40;;;24.20;54.40;;;;;;220022;1270;25004;-51
2022/07/15 04:44:22;;;;;;;3.40;1.70;;;24.20;54.40;;;;;;220073;1267;22544;-52
2022/07/15 04:54:54;;;;;;;2.20;1.70;;;24.20;54.30;;;;;;220235;1267;25592;-52
2022/07/15 04:59:57;;;;;;;2.70;1.70;;;24.20;54.30;;;;;;220437;1267;24212;-50
2022/07/15 05:05:03;;;;;;;3.70;1.50;;;24.20;54.20;;;;;;220385;1267;24212;-53
2022/07/15 05:10:09;;;;;;;2.00;1.40;;;24.20;54.20;;;;;;220079;1268;22558;-51
2022/07/15 05:15:14;;;;;;;2.40;1.50;;;24.20;54.10;;;;;;220114;1268;24305;-49
2022/07/15 05:20:18;;;;;;;1.80;1.30;;;24.20;54.10;;;;;;220483;1267;24194;-49
2022/07/15 05:25:23;;;;;;;3.00;1.70;;;24.10;54.10;;;;;;220408;1268;24279;-51
2022/07/15 05:30:27;;;;;;;3.20;1.50;;;24.20;54.00;;;;;;220491;1267;22551;-51
2022/07/15 05:35:35;;;;;;;2.30;1.30;;;24.20;54.00;;;;;;220097;1267;22533;-50
2022/07/15 05:40:39;;;;;;;2.30;1.40;;;24.20;53.60;;;;;;220437;1268;24276;-53
2022/07/15 05:45:43;;;;;;;2.80;1.70;;;24.20;53.70;;;;;;220549;1268;22556;-49
2022/07/15 05:50:46;;;;;;;2.00;1.40;;;24.20;53.40;;;;;;220775;1267;22609;-50
2022/07/15 05:55:52;;;;;;;2.20;1.50;;;24.20;53.40;;;;;;220893;1267;22529;-50
2022/07/15 06:00:58;;;;;;;2.50;1.40;;;24.20;53.30;;;;;;220693;1266;24202;-49
2022/07/15 06:06:07;;;;;;;3.30;1.50;;;24.20;53.40;;;;;;220457;1266;23933;-53
2022/07/15 06:11:11;;;;;;;2.40;1.50;;;24.20;53.80;;;;;;220379;1267;22544;-53
2022/07/15 06:16:16;;;;;;;2.50;1.50;;;24.20;53.00;;;;;;220536;1267;25594;-61
2022/07/15 06:21:20;;;;;;;2.00;1.30;;;24.20;53.30;;;;;;220627;1267;25493;-61
2022/07/15 06:26:24;;;;;;;2.30;1.40;;;24.20;53.20;;;;;;220547;1267;22529;-61
2022/07/15 06:31:27;;;;;;;3.10;1.70;;;24.20;52.90;;;;;;220376;1267;22544;-60
2022/07/15 06:36:32;;;;;;;2.10;1.10;;;24.20;52.90;;;;;;220753;1267;25261;-62
2022/07/15 06:41:36;;;;;;;9.50;1.40;;;24.20;52.50;;;;;;220465;1267;22584;-61
2022/07/15 06:46:40;;;;;;;2.30;1.50;;;24.20;51.50;;;;;;220628;1267;22550;-60
2022/07/15 06:51:46;;;;;;;2.90;1.40;;;24.20;51.40;;;;;;220381;1268;23131;-60
2022/07/15 06:56:53;;;;;;;3.40;2.00;;;24.30;51.70;;;;;;220558;1268;24371;-60
2022/07/15 07:02:00;;;;;;;3.40;1.50;;;24.30;51.80;;;;;;220441;1268;22564;-62
2022/07/15 07:07:04;;;;;;;2.90;1.50;;;24.30;51.80;;;;;;220522;1267;22642;-59
2022/07/15 07:12:08;;;;;;;1.80;1.10;;;24.30;52.00;;;;;;220398;1267;22689;-60
2022/07/15 07:17:11;;;;;;;2.50;1.30;;;24.30;52.20;;;;;;220646;1267;22526;-60
2022/07/15 07:22:15;;;;;;;5.80;1.70;;;24.30;52.50;;;;;;220569;1267;22547;-61
2022/07/15 07:27:19;;;;;;;2.00;1.30;;;24.40;52.50;;;;;;220441;1267;26686;-62
2022/07/15 07:32:24;;;;;;;3.00;1.50;;;24.40;52.90;;;;;;220834;1267;22525;-59
2022/07/15 07:37:28;;;;;;;3.10;1.60;;;24.40;51.90;;;;;;220254;1267;22531;-61
2022/07/15 07:42:32;;;;;;;4.60;1.40;;;24.40;51.90;;;;;;220385;1267;22546;-61
2022/07/15 07:47:39;;;;;;;4.80;1.30;;;24.40;52.00;;;;;;220252;1267;22570;-62
2022/07/15 07:52:43;;;;;;;3.30;1.40;;;24.40;52.00;;;;;;220502;1267;22537;-59
2022/07/15 07:57:51;;;;;;;2.40;1.40;;;24.40;51.70;;;;;;220063;1269;22629;-59
2022/07/15 08:02:58;;;;;;;2.60;1.30;;;24.40;52.10;;;;;;220504;1267;22527;-62
2022/07/15 08:08:13;;;;;;;4.20;1.60;;;24.40;51.40;;;;;;220472;1268;22550;-61
2022/07/15 08:13:19;;;;;;;2.80;1.50;;;24.40;51.80;;;;;;220207;1267;22547;-59
2022/07/15 08:18:23;;;;;;;4.30;1.80;;;24.40;52.40;;;;;;220444;1267;22544;-59
2022/07/15 08:23:32;;;;;;;4.70;1.30;;;24.40;52.00;;;;;;221054;1267;22733;-60
2022/07/15 08:28:36;;;;;;;2.90;1.50;;;24.50;52.00;;;;;;220649;1267;22597;-60
2022/07/15 08:33:59;;;;;;;3.70;1.20;;;24.50;52.10;;;;;;220581;1267;22561;-60
2022/07/15 08:39:03;;;;;;;3.40;1.50;;;24.50;52.00;;;;;;220467;1267;22540;-64
2022/07/15 08:44:08;;;;;;;2.90;1.40;;;24.50;52.00;;;;;;220726;1267;22529;-62
2022/07/15 08:49:17;;;;;;;7.40;1.40;;;24.50;52.10;;;;;;220121;1267;22544;-62
2022/07/15 08:54:20;;;;;;;3.00;1.50;;;24.50;52.20;;;;;;220489;1267;25497;-61
2022/07/15 08:59:27;;;;;;;3.30;1.10;;;24.50;52.50;;;;;;220287;1267;25236;-60
2022/07/15 09:04:31;;;;;;;2.50;1.30;;;24.50;52.10;;;;;;220382;1266;22527;-61
2022/07/15 09:09:36;;;;;;;2.30;1.20;;;24.50;52.20;;;;;;220590;1267;25688;-60
2022/07/15 09:14:45;;;;;;;2.70;1.30;;;24.50;52.20;;;;;;220762;1267;24299;-59
2022/07/15 09:20:13;;;;;;;3.00;1.40;;;24.50;52.10;;;;;;220819;1267;24382;-59
2022/07/15 09:25:17;;;;;;;8.90;1.30;;;24.50;52.00;;;;;;220483;1267;25237;-61
2022/07/15 09:36:04;;;;;;;2.70;1.10;;;24.50;51.60;;;;;;220912;1266;22546;-61
2022/07/15 09:41:10;;;;;;;2.30;1.20;;;24.60;51.80;;;;;;220383;1267;24321;-60
2022/07/15 09:46:14;;;;;;;2.10;1.30;;;24.50;51.80;;;;;;220849;1267;24115;-59
2022/07/15 09:51:21;;;;;;;2.00;1.00;;;24.60;52.00;;;;;;220349;1267;22556;-59
2022/07/15 09:56:26;;;;;;;1.60;1.10;;;24.50;51.60;;;;;;220627;1267;22594;-61
2022/07/15 10:01:33;;;;;;;1.60;1.10;;;24.60;51.70;;;;;;220600;1267;22537;-61
2022/07/15 10:06:38;;;;;;;2.30;1.10;;;24.60;51.70;;;;;;220670;1267;22813;-58
2022/07/15 10:11:48;;;;;;;2.70;1.10;;;24.60;51.30;;;;;;220691;1267;22586;-60
2022/07/15 10:17:26;;;;;;;3.10;1.40;;;24.60;51.30;;;;;;220394;1267;22545;-60
2022/07/15 10:22:51;;;;;;;2.80;1.10;;;24.60;51.00;;;;;;220344;1268;22557;-61
2022/07/15 10:28:05;;;;;;;4.90;1.30;;;24.60;50.70;;;;;;220199;1270;22700;-60
2022/07/15 10:33:13;;;;;;;1.90;1.00;;;24.70;49.90;;;;;;220458;1267;22681;-59
2022/07/15 10:38:38;;;;;;;2.20;1.00;;;24.70;49.90;;;;;;220136;1268;22551;-60
2022/07/15 10:43:53;;;;;;;1.80;1.20;;;24.70;50.10;;;;;;220298;1267;25194;-59
2022/07/15 10:48:59;;;;;;;1.40;0.90;;;24.70;50.10;;;;;;220624;1267;22540;-59
2022/07/15 10:54:05;;;;;;;2.60;1.20;;;24.70;50.00;;;;;;220442;1267;25321;-61
2022/07/15 10:59:11;;;;;;;2.30;1.10;;;24.70;50.10;;;;;;220457;1267;22483;-61
2022/07/15 11:04:18;;;;;;;2.30;1.10;;;24.70;49.70;;;;;;220489;1267;24027;-60
2022/07/15 11:09:43;;;;;;;3.30;1.20;;;24.70;50.10;;;;;;220747;1267;23964;-59
2022/07/15 11:14:51;;;;;;;1.70;1.10;;;24.80;49.90;;;;;;220758;1267;22988;-61
2022/07/15 11:20:26;;;;;;;2.20;1.10;;;24.80;49.40;;;;;;220571;1267;22570;-61
2022/07/15 11:25:40;;;;;;;2.00;1.00;;;24.80;49.30;;;;;;220690;1267;22545;-60
2022/07/15 11:30:55;;;;;;;2.20;1.10;;;24.90;49.10;;;;;;220293;1268;24303;-59
2022/07/15 11:36:03;;;;;;;2.10;1.10;;;24.90;49.00;;;;;;220354;1269;24222;-58
2022/07/15 11:46:43;;;;;;;4.30;1.50;;;24.90;49.20;;;;;;220527;1267;22969;-61
2022/07/15 11:51:47;;;;;;;3.00;1.20;;;24.80;48.60;;;;;;220326;1268;22535;-60
2022/07/15 11:56:58;;;;;;;4.30;1.20;;;24.90;48.60;;;;;;220155;1270;25244;-58
2022/07/15 12:02:13;;;;;;;3.70;1.10;;;24.90;48.50;;;;;;220316;1270;22815;-58
2022/07/15 12:07:22;;;;;;;2.50;1.20;;;24.90;48.30;;;;;;220422;1270;22827;-60
2022/07/15 12:12:42;;;;;;;3.70;1.10;;;24.90;48.40;;;;;;220315;1270;22531;-61
2022/07/15 12:17:47;;;;;;;4.80;1.10;;;24.90;48.30;;;;;;220287;1270;22601;-61
2022/07/15 12:23:11;;;;;;;2.70;1.10;;;24.90;48.10;;;;;;220384;1267;24457;-59
2022/07/15 12:28:52;;;;;;;1.80;0.90;;;25.00;48.20;;;;;;220178;1270;25401;-60
2022/07/15 12:34:10;;;;;;;2.90;1.10;;;25.00;48.40;;;;;;220460;1270;23383;-60
2022/07/15 12:39:34;;;;;;;2.20;1.20;;;25.00;48.50;;;;;;219830;1267;24421;-60
2022/07/15 12:45:43;;;;;;;4.00;1.10;;;25.00;47.60;;;;;;219961;1270;22681;-60
2022/07/15 12:51:04;;;;;;;2.50;1.00;;;25.10;48.10;;;;;;218766;1271;24484;-61
2022/07/15 12:56:09;;;;;;;3.40;1.00;;;25.10;48.00;;;;;;220649;1267;22570;-60
2022/07/15 13:01:16;;;;;;;2.30;1.20;;;25.00;48.10;;;;;;220286;1267;24276;-61
2022/07/15 13:06:20;;;;;;;2.40;1.10;;;25.00;47.80;;;;;;220450;1267;24308;-59
2022/07/15 13:11:24;;;;;;;1.70;0.90;;;25.10;47.40;;;;;;220430;1266;22571;-60
2022/07/15 13:16:28;;;;;;;8.20;1.10;;;25.10;48.00;;;;;;220495;1267;24295;-60
2022/07/15 13:21:37;;;;;;;2.80;1.20;;;25.10;47.80;;;;;;220701;1267;24425;-59
2022/07/15 13:26:44;;;;;;;1.70;1.00;;;25.00;47.80;;;;;;220202;1268;22530;-59
2022/07/15 13:31:48;;;;;;;2.30;1.00;;;25.00;48.10;;;;;;220714;1267;318649;-61
2022/07/15 13:36:51;;;;;;;3.10;1.20;;;25.00;48.20;;;;;;220623;1267;22541;-62
2022/07/15 13:41:55;;;;;;;2.90;1.10;;;25.00;48.40;;;;;;220637;1268;24219;-59
2022/07/15 13:46:59;;;;;;;2.40;1.20;;;25.00;48.20;;;;;;220425;1267;25523;-59
2022/07/15 13:52:03;;;;;;;1.80;1.10;;;25.00;48.70;;;;;;220488;1267;24396;-60
2022/07/15 13:57:07;;;;;;;5.10;1.40;;;25.00;48.00;;;;;;220764;1267;24404;-61
2022/07/15 14:02:12;;;;;;;3.10;1.30;;;25.00;48.20;;;;;;220863;1267;22561;-61
2022/07/15 14:07:17;;;;;;;2.50;1.20;;;25.10;48.60;;;;;;220307;1270;22637;-61
2022/07/15 14:12:21;;;;;;;3.80;1.10;;;25.00;48.80;;;;;;220645;1270;22531;-59
2022/07/15 14:17:25;;;;;;;2.50;1.10;;;25.10;48.50;;;;;;220348;1267;23127;-59
2022/07/15 14:22:30;;;;;;;2.50;1.10;;;25.00;48.50;;;;;;220468;1270;22548;-60
2022/07/15 14:27:35;;;;;;;2.50;1.20;;;25.00;48.30;;;;;;220450;1270;25281;-60
2022/07/15 14:32:40;;;;;;;6.20;1.10;;;25.00;48.00;;;;;;220657;1267;22560;-60
2022/07/15 14:37:44;;;;;;;3.10;1.10;;;25.10;48.40;;;;;;220530;1267;24841;-59
2022/07/15 14:42:48;;;;;;;2.00;1.10;;;25.00;48.10;;;;;;220526;1267;22534;-61
2022/07/15 14:47:51;;;;;;;3.80;1.20;;;25.00;48.10;;;;;;220368;1271;22766;-60
2022/07/15 14:52:55;;;;;;;2.40;1.20;;;25.00;48.90;;;;;;220077;1270;24216;-61
2022/07/15 14:57:59;;;;;;;4.70;1.00;;;25.00;48.30;;;;;;220605;1267;25304;-60
2022/07/15 15:03:02;;;;;;;1.60;1.10;;;25.00;48.00;;;;;;220502;1268;22528;-64
2022/07/15 15:08:06;;;;;;;2.70;1.00;;;25.00;48.30;;;;;;220695;1267;25358;-61
2022/07/15 15:13:10;;;;;;;2.60;1.10;;;25.00;48.80;;;;;;220328;1270;22723;-62
2022/07/15 15:18:17;;;;;;;2.50;1.20;;;25.10;48.60;;;;;;220308;1270;22547;-61
2022/07/15 15:23:22;;;;;;;3.20;1.20;;;25.10;48.60;;;;;;220846;1267;23407;-60
2022/07/15 15:28:26;;;;;;;2.60;1.30;;;25.10;48.50;;;;;;220648;1268;22555;-61
2022/07/15 15:33:31;;;;;;;3.20;1.30;;;25.10;48.70;;;;;;220787;1268;22548;-62
2022/07/15 15:38:35;;;;;;;2.20;1.10;;;25.10;48.60;;;;;;220222;1270;24293;-60
2022/07/15 15:43:43;;;;;;;3.30;1.20;;;25.10;48.60;;;;;;220258;1270;24359;-60
2022/07/15 15:48:51;;;;;;;3.00;1.30;;;25.10;48.80;;;;;;220864;1267;25431;-61
2022/07/15 15:53:54;;;;;;;5.20;2.40;;;25.10;49.20;;;;;;220871;1267;22551;-62
2022/07/15 15:58:58;;;;;;;4.10;2.20;;;25.10;52.60;;;;;;220359;1268;22570;-59
2022/07/15 16:04:01;;;;;;;4.80;1.80;;;25.10;52.60;;;;;;220715;1270;25237;-61
2022/07/15 16:09:05;;;;;;;4.70;1.70;;;25.10;52.30;;;;;;220976;1267;24190;-58
2022/07/15 16:14:09;;;;;;;3.40;1.70;;;25.10;52.10;;;;;;220778;1270;25356;-61
2022/07/15 16:19:13;;;;;;;3.00;1.50;;;25.10;51.40;;;;;;220323;1267;22528;-64
2022/07/15 16:24:16;;;;;;;3.70;1.70;;;25.00;50.50;;;;;;220444;1270;24401;-59
2022/07/15 16:29:39;;;;;;;5.20;1.60;;;25.00;49.90;;;;;;220809;1268;24300;-63
2022/07/15 16:34:42;;;;;;;3.40;1.30;;;25.00;49.90;;;;;;220816;1267;22544;-63
2022/07/15 16:39:47;;;;;;;7.10;2.00;;;25.00;49.10;;;;;;220672;1268;22519;-60
2022/07/15 16:44:51;;;;;;;3.70;1.40;;;25.00;48.70;;;;;;220487;1271;22554;-62
2022/07/15 16:49:55;;;;;;;3.80;1.80;;;25.00;48.70;;;;;;220520;1268;22573;-62
2022/07/15 16:54:59;;;;;;;3.00;1.60;;;25.00;48.60;;;;;;220376;1267;22742;-62
2022/07/15 17:00:06;;;;;;;3.60;1.40;;;25.00;48.60;;;;;;220451;1270;22570;-57
2022/07/15 17:05:10;;;;;;;3.60;1.50;;;25.00;48.00;;;;;;220343;1269;22857;-61
2022/07/15 17:10:14;;;;;;;4.00;1.50;;;25.00;48.00;;;;;;220718;1270;22532;-63
2022/07/15 17:15:18;;;;;;;3.30;1.80;;;25.00;47.80;;;;;;220540;1271;23177;-61
2022/07/15 17:20:22;;;;;;;2.30;1.30;;;25.00;48.00;;;;;;220812;1268;25300;-61
2022/07/15 17:25:26;;;;;;;3.70;1.40;;;25.00;47.20;;;;;;220441;1268;22567;-62
2022/07/15 17:30:29;;;;;;;3.30;1.40;;;25.00;47.50;;;;;;220110;1270;23031;-60
2022/07/15 17:35:33;;;;;;;2.60;1.40;;;25.00;47.60;;;;;;220221;1268;24275;-61
2022/07/15 17:40:38;;;;;;;3.20;1.50;;;25.00;47.50;;;;;;220550;1268;22528;-61
2022/07/15 17:45:41;;;;;;;3.80;1.80;;;25.00;47.50;;;;;;220563;1268;22537;-61
2022/07/15 17:50:45;;;;;;;3.40;1.40;;;25.00;47.50;;;;;;220445;1268;24261;-62
2022/07/15 17:55:48;;;;;;;3.10;1.30;;;25.00;47.70;;;;;;220855;1270;22546;-60
2022/07/15 18:00:52;;;;;;;3.70;1.50;;;25.00;48.00;;;;;;220400;1267;22528;-60
2022/07/15 18:05:56;;;;;;;3.60;1.30;;;24.90;47.70;;;;;;220528;1268;22593;-60
2022/07/15 18:11:00;;;;;;;3.90;1.60;;;25.00;47.70;;;;;;220259;1268;24221;-59
2022/07/15 18:16:04;;;;;;;3.00;1.60;;;24.90;47.80;;;;;;220813;1268;25235;-62
2022/07/15 18:21:10;;;;;;;3.20;1.50;;;24.90;48.00;;;;;;220543;1268;25252;-62
2022/07/15 18:26:14;;;;;;;2.90;1.40;;;24.90;47.80;;;;;;220433;1268;22555;-65
2022/07/15 18:31:25;;;;;;;2.30;1.30;;;24.90;48.00;;;;;;220084;1271;22718;-62
2022/07/15 18:36:32;;;;;;;2.60;1.20;;;24.90;47.90;;;;;;220680;1268;23511;-60
2022/07/15 18:41:37;;;;;;;3.40;1.30;;;24.90;48.00;;;;;;220523;1268;24249;-59
2022/07/15 18:46:46;;;;;;;2.10;1.40;;;24.90;48.00;;;;;;220640;1268;24115;-62
2022/07/15 18:51:50;;;;;;;2.70;1.10;;;24.90;48.10;;;;;;220540;1268;23830;-61
2022/07/15 18:56:54;;;;;;;2.50;1.30;;;24.90;47.70;;;;;;220482;1268;24280;-62
2022/07/15 19:01:57;;;;;;;3.10;1.20;;;24.80;48.20;;;;;;220524;1268;24218;-60
2022/07/15 19:07:01;;;;;;;2.50;1.30;;;24.80;48.80;;;;;;220554;1268;22564;-61
2022/07/15 19:12:05;;;;;;;2.70;1.50;;;24.80;48.30;;;;;;220412;1268;25234;-59
2022/07/15 19:17:11;;;;;;;2.10;1.20;;;24.80;48.50;;;;;;220372;1268;25254;-61
2022/07/15 19:22:15;;;;;;;1.80;1.10;;;24.80;48.50;;;;;;220382;1268;22551;-62
2022/07/15 19:27:28;;;;;;;3.10;1.20;;;24.80;48.50;;;;;;220216;1268;23098;-61
2022/07/15 19:32:57;;;;;;;3.30;1.30;;;24.70;48.50;;;;;;220422;1268;22701;-63
2022/07/15 19:39:12;;;;;;;;;;;;;;;;;;;;;
2022/07/15 19:44:30;;;;;;;2.30;1.20;;;24.70;48.40;;;;;;220519;1268;24170;-61
2022/07/15 19:49:58;;;;;;;2.10;1.30;;;24.70;48.60;;;;;;220247;1268;22615;-62
2022/07/15 19:56:34;;;;;;;;;;;;;;;;;;;;;
2022/07/15 20:02:02;;;;;;;2.00;1.00;;;24.70;48.70;;;;;;220618;1268;24409;-62
2022/07/15 20:07:06;;;;;;;1.80;1.20;;;24.70;48.80;;;;;;220299;1268;25245;-62
2022/07/15 20:12:12;;;;;;;2.60;1.20;;;24.70;49.00;;;;;;220267;1268;22540;-62
2022/07/15 20:17:17;;;;;;;2.10;1.00;;;24.70;49.20;;;;;;220718;1267;25255;-61
2022/07/15 20:22:23;;;;;;;1.70;1.00;;;24.60;49.20;;;;;;220119;1271;25219;-62
2022/07/15 20:27:27;;;;;;;2.50;1.30;;;24.60;49.20;;;;;;220711;1268;25293;-62
2022/07/15 20:32:30;;;;;;;2.10;1.10;;;24.60;49.50;;;;;;220683;1268;22560;-61
2022/07/15 20:37:44;;;;;;;2.80;1.30;;;24.60;49.60;;;;;;220766;1267;25359;-63
2022/07/15 20:42:53;;;;;;;2.00;1.10;;;24.60;49.90;;;;;;220445;1267;24307;-61
2022/07/15 20:48:11;;;;;;;2.10;1.10;;;24.60;49.70;;;;;;220691;1268;24277;-63
2022/07/15 20:53:34;;;;;;;2.90;1.20;;;24.50;49.70;;;;;;220630;1267;25691;-60
2022/07/15 20:58:48;;;;;;;2.70;1.20;;;24.50;49.70;;;;;;220245;1268;25532;-61
2022/07/15 21:04:10;;;;;;;3.00;1.10;;;24.50;50.10;;;;;;220580;1267;23154;-62
2022/07/15 21:09:57;;;;;;;2.40;1.10;;;24.50;49.70;;;;;;220352;1267;23934;-60
2022/07/15 21:15:58;;;;;;;1.80;1.10;;;24.50;50.10;;;;;;220264;1267;25363;-61
2022/07/15 21:21:38;;;;;;;2.30;1.20;;;24.50;49.70;;;;;;220445;1268;22541;-62
2022/07/15 21:27:21;;;;;;;2.60;1.10;;;24.50;49.80;;;;;;220535;1267;25333;-61
2022/07/15 21:32:30;;;;;;;2.00;1.00;;;24.40;50.10;;;;;;220656;1267;25766;-61
2022/07/15 21:37:39;;;;;;;1.90;0.90;;;24.40;50.10;;;;;;220920;1267;23683;-59
2022/07/15 21:42:43;;;;;;;2.80;1.20;;;24.40;49.90;;;;;;220127;1267;25303;-61
2022/07/15 21:47:47;;;;;;;2.20;1.10;;;24.40;49.80;;;;;;220374;1268;22706;-61
2022/07/15 21:52:51;;;;;;;2.60;1.30;;;24.30;49.80;;;;;;220364;1267;24409;-61
2022/07/15 21:57:55;;;;;;;2.20;0.90;;;24.30;49.90;;;;;;220585;1267;22744;-61
2022/07/15 22:02:59;;;;;;;2.90;1.30;;;24.30;50.20;;;;;;220164;1268;26515;-61
2022/07/15 22:08:04;;;;;;;1.80;1.00;;;24.30;50.00;;;;;;220522;1267;25370;-60
2022/07/15 22:13:07;;;;;;;2.70;1.50;;;24.30;49.50;;;;;;220744;1267;24672;-60
2022/07/15 22:18:11;;;;;;;1.70;1.10;;;24.30;50.00;;;;;;220640;1267;22551;-61
2022/07/15 22:23:15;;;;;;;2.60;1.20;;;24.20;50.00;;;;;;220226;1267;24965;-61
2022/07/15 22:28:23;;;;;;;2.90;1.40;;;24.20;50.00;;;;;;220416;1267;24104;-60
2022/07/15 22:33:36;;;;;;;2.40;1.30;;;24.20;50.30;;;;;;220254;1267;22552;-63
2022/07/15 22:38:50;;;;;;;2.10;1.20;;;24.20;50.00;;;;;;220644;1267;24057;-61
2022/07/15 22:43:58;;;;;;;2.10;1.30;;;24.10;50.40;;;;;;220728;1267;25361;-61
2022/07/15 22:49:05;;;;;;;1.90;1.20;;;24.10;50.60;;;;;;220700;1267;25237;-60
2022/07/15 22:54:09;;;;;;;2.60;1.30;;;24.10;50.10;;;;;;220258;1268;22554;-61
2022/07/15 22:59:13;;;;;;;2.50;1.20;;;24.10;50.10;;;;;;220597;1267;22546;-61
2022/07/15 23:04:21;;;;;;;2.10;1.30;;;24.10;50.10;;;;;;220216;1267;22554;-60
2022/07/15 23:09:30;;;;;;;1.90;1.30;;;24.10;50.20;;;;;;220189;1268;22573;-61
2022/07/15 23:14:34;;;;;;;3.00;1.40;;;24.10;50.20;;;;;;220618;1267;22557;-60
2022/07/15 23:19:46;;;;;;;2.60;1.20;;;24.00;50.10;;;;;;220604;1268;24308;-59
2022/07/15 23:24:50;;;;;;;3.60;1.30;;;24.00;50.10;;;;;;220422;1268;22668;-58
2022/07/15 23:29:54;;;;;;;3.40;1.40;;;24.00;50.20;;;;;;220740;1267;22538;-60
2022/07/15 23:34:58;;;;;;;2.80;1.60;;;24.00;50.20;;;;;;220854;1267;24336;-60
2022/07/15 23:40:10;;;;;;;3.00;1.40;;;24.00;50.10;;;;;;220279;1268;24411;-61
2022/07/15 23:45:13;;;;;;;2.10;1.30;;;24.00;50.10;;;;;;220317;1267;26683;-62
2022/07/15 23:50:17;;;;;;;2.50;1.20;;;24.00;50.60;;;;;;220610;1267;24277;-61
2022/07/15 23:55:21;;;;;;;2.10;1.40;;;24.00;50.10;;;;;;220514;1267;25317;-61
